createdAt,value
2018-09-01T00:00:20.187Z,0
2018-09-01T00:01:26.474Z,0
2018-09-01T00:02:31.966Z,0
2018-09-01T00:03:37.383Z,0
2018-09-01T00:04:43.129Z,0
2018-09-01T00:05:49.492Z,0
2018-09-01T00:06:55.362Z,0
2018-09-01T00:08:00.658Z,0
2018-09-01T00:09:05.867Z,0
2018-09-01T00:10:09.080Z,0
2018-09-01T00:11:14.514Z,0
2018-09-01T00:12:18.583Z,0
2018-09-01T00:13:23.609Z,0
2018-09-01T00:14:29.299Z,0
2018-09-01T00:15:34.926Z,0
2018-09-01T00:16:39.666Z,0
2018-09-01T00:17:45.211Z,0
2018-09-01T00:18:49.161Z,0
2018-09-01T00:19:54.893Z,0
2018-09-01T00:20:59.793Z,0
2018-09-01T00:22:03.876Z,0
2018-09-01T00:23:09.486Z,0
2018-09-01T00:24:15.928Z,0
2018-09-01T00:25:21.584Z,0
2018-09-01T00:26:28.100Z,0
2018-09-01T00:27:31.385Z,0
2018-09-01T00:28:35.963Z,0
2018-09-01T00:29:42.214Z,0
2018-09-01T00:30:49.192Z,0
2018-09-01T00:31:56.003Z,0
2018-09-01T00:33:01.180Z,0
2018-09-01T00:34:05.431Z,0
2018-09-01T00:35:11.818Z,0
2018-09-01T00:36:17.133Z,0
2018-09-01T00:37:22.324Z,0
2018-09-01T00:38:26.515Z,0
2018-09-01T00:39:31.264Z,0
2018-09-01T00:40:35.723Z,0
2018-09-01T00:41:41.783Z,0
2018-09-01T00:42:46.548Z,0
2018-09-01T00:43:52.626Z,0
2018-09-01T00:44:57.312Z,0
2018-09-01T00:46:01.962Z,0
2018-09-01T00:47:05.377Z,0
2018-09-01T00:48:10.120Z,0
2018-09-01T00:49:13.659Z,0
2018-09-01T00:50:19.203Z,0
2018-09-01T00:51:22.740Z,0
2018-09-01T00:52:28.654Z,0
2018-09-01T00:53:32.961Z,0
2018-09-01T00:54:36.731Z,0
2018-09-01T00:55:40.954Z,0
2018-09-01T00:56:47.339Z,0
2018-09-01T00:57:52.852Z,0
2018-09-01T00:58:58.485Z,0
2018-09-01T01:00:03.899Z,0
2018-09-01T01:01:07.598Z,0
2018-09-01T01:02:13.252Z,0
2018-09-01T01:03:17.950Z,0
2018-09-01T01:04:21.821Z,0
2018-09-01T01:05:25.210Z,0
2018-09-01T01:06:30.628Z,0
2018-09-01T01:07:36.635Z,0
2018-09-01T01:08:41.709Z,0
2018-09-01T01:09:46.553Z,0
2018-09-01T01:10:52.076Z,0
2018-09-01T01:11:56.739Z,0
2018-09-01T01:13:00.943Z,0
2018-09-01T01:14:07.034Z,0
2018-09-01T01:15:12.410Z,0
2018-09-01T01:16:17.886Z,0
2018-09-01T01:17:23.817Z,0
2018-09-01T01:18:29.761Z,0
2018-09-01T01:19:35.082Z,0
2018-09-01T01:20:40.652Z,0
2018-09-01T01:21:45.796Z,0
2018-09-01T01:22:51.748Z,0
2018-09-01T01:23:57.482Z,0
2018-09-01T01:25:02.540Z,0
2018-09-01T01:26:08.047Z,0
2018-09-01T01:27:12.733Z,0
2018-09-01T01:28:17.081Z,0
2018-09-01T01:29:22.155Z,0
2018-09-01T01:30:25.849Z,0
2018-09-01T01:31:30.761Z,0
2018-09-01T01:32:35.388Z,0
2018-09-01T01:33:40.852Z,0
2018-09-01T01:34:48.946Z,0
2018-09-01T01:35:53.763Z,0
2018-09-01T01:36:59.242Z,0
2018-09-01T01:38:06.041Z,0
2018-09-01T01:39:13.223Z,0
2018-09-01T01:40:19.121Z,0
2018-09-01T01:41:25.044Z,0
2018-09-01T01:42:31.017Z,0
2018-09-01T01:43:35.155Z,0
2018-09-01T01:44:39.251Z,0
2018-09-01T01:45:44.528Z,0
2018-09-01T01:46:49.439Z,0
2018-09-01T01:47:55.731Z,0
2018-09-01T01:49:02.672Z,0
2018-09-01T01:50:08.814Z,0
2018-09-01T01:51:14.297Z,0
2018-09-01T01:52:20.615Z,0
2018-09-01T01:53:27.527Z,0
2018-09-01T01:54:34.528Z,0
2018-09-01T01:55:38.978Z,0
2018-09-01T01:56:45.131Z,0
2018-09-01T01:57:50.753Z,0
2018-09-01T01:58:57.734Z,0
2018-09-01T02:00:03.093Z,0
2018-09-01T02:01:08.540Z,0
2018-09-01T02:02:14.760Z,0
2018-09-01T02:03:21.237Z,0
2018-09-01T02:04:26.744Z,0
2018-09-01T02:05:31.062Z,0
2018-09-01T02:06:35.738Z,0
2018-09-01T02:07:42.418Z,0
2018-09-01T02:08:47.008Z,0
2018-09-01T02:09:52.921Z,0
2018-09-01T02:10:57.827Z,0
2018-09-01T02:12:02.050Z,0
2018-09-01T02:13:08.108Z,0
2018-09-01T02:14:13.893Z,0
2018-09-01T02:15:19.644Z,0
2018-09-01T02:16:25.348Z,0
2018-09-01T02:17:31.164Z,0
2018-09-01T02:18:36.947Z,0
2018-09-01T02:19:42.213Z,0
2018-09-01T02:20:46.175Z,0
2018-09-01T02:21:52.157Z,0
2018-09-01T02:22:56.911Z,0
2018-09-01T02:24:04.024Z,0
2018-09-01T02:25:09.088Z,0
2018-09-01T02:26:14.432Z,0
2018-09-01T02:27:19.749Z,0
2018-09-01T02:28:26.572Z,0
2018-09-01T02:29:33.687Z,0
2018-09-01T02:30:40.244Z,0
2018-09-01T02:31:45.952Z,0
2018-09-01T02:32:51.496Z,0
2018-09-01T02:33:57.847Z,0
2018-09-01T02:35:02.051Z,0
2018-09-01T02:36:07.216Z,0
2018-09-01T02:37:11.853Z,0
2018-09-01T02:38:18.346Z,0
2018-09-01T02:39:24.639Z,0
2018-09-01T02:40:30.493Z,0
2018-09-01T02:41:33.466Z,0
2018-09-01T02:42:40.179Z,0
2018-09-01T02:43:45.507Z,0
2018-09-01T02:44:49.339Z,0
2018-09-01T02:45:55.752Z,0
2018-09-01T02:47:01.885Z,0
2018-09-01T02:48:09.136Z,0
2018-09-01T02:49:16.105Z,0
2018-09-01T02:50:22.358Z,0
2018-09-01T02:51:27.404Z,0
2018-09-01T02:52:33.116Z,0
2018-09-01T02:53:38.868Z,0
2018-09-01T02:54:43.905Z,0
2018-09-01T02:55:50.729Z,0
2018-09-01T02:56:55.567Z,0
2018-09-01T02:58:02.349Z,0
2018-09-01T02:59:07.495Z,0
2018-09-01T03:00:12.259Z,0
2018-09-01T03:01:18.096Z,0
2018-09-01T03:02:24.415Z,0
2018-09-01T03:03:28.945Z,0
2018-09-01T03:04:34.548Z,0
2018-09-01T03:05:40.062Z,0
2018-09-01T03:06:46.048Z,0
2018-09-01T03:07:51.058Z,0
2018-09-01T03:08:57.470Z,0
2018-09-01T03:10:02.792Z,0
2018-09-01T03:11:07.593Z,0
2018-09-01T03:12:13.177Z,0
2018-09-01T03:13:18.811Z,0
2018-09-01T03:14:26.795Z,0
2018-09-01T03:15:31.879Z,0
2018-09-01T03:16:38.783Z,0
2018-09-01T03:17:44.316Z,0
2018-09-01T03:18:50.368Z,0
2018-09-01T03:19:54.855Z,0
2018-09-01T03:21:02.029Z,0
2018-09-01T03:22:08.954Z,0
2018-09-01T03:23:15.327Z,0
2018-09-01T03:24:22.394Z,0
2018-09-01T03:25:29.133Z,0
2018-09-01T03:26:36.017Z,0
2018-09-01T03:27:42.523Z,0
2018-09-01T03:28:49.706Z,0
2018-09-01T03:29:56.918Z,0
2018-09-01T03:31:02.232Z,0
2018-09-01T03:32:09.482Z,0
2018-09-01T03:33:15.012Z,0
2018-09-01T03:34:21.765Z,0
2018-09-01T03:35:26.294Z,0
2018-09-01T03:36:32.047Z,0
2018-09-01T03:37:38.308Z,0
2018-09-01T03:38:44.927Z,0
2018-09-01T03:39:51.347Z,0
2018-09-01T03:40:59.103Z,0
2018-09-01T03:42:05.203Z,0
2018-09-01T03:43:11.655Z,0
2018-09-01T03:44:18.984Z,0
2018-09-01T03:45:25.828Z,0
2018-09-01T03:46:32.187Z,0
2018-09-01T03:47:39.047Z,0
2018-09-01T03:48:44.052Z,0
2018-09-01T03:49:50.381Z,0
2018-09-01T03:50:56.349Z,0
2018-09-01T03:52:02.756Z,0
2018-09-01T03:53:09.299Z,0
2018-09-01T03:54:15.512Z,0
2018-09-01T03:55:20.804Z,0
2018-09-01T03:56:27.755Z,0
2018-09-01T03:57:33.048Z,0
2018-09-01T03:58:39.642Z,0
2018-09-01T03:59:45.959Z,0
2018-09-01T04:00:51.201Z,0
2018-09-01T04:01:55.657Z,0
2018-09-01T04:03:01.462Z,0
2018-09-01T04:04:07.006Z,0
2018-09-01T04:05:13.625Z,0
2018-09-01T04:06:18.247Z,0
2018-09-01T04:07:23.699Z,0
2018-09-01T04:08:30.219Z,0
2018-09-01T04:09:36.127Z,0
2018-09-01T04:10:42.477Z,0
2018-09-01T04:11:47.370Z,0
2018-09-01T04:12:52.932Z,0
2018-09-01T04:13:58.970Z,0
2018-09-01T04:15:04.772Z,0
2018-09-01T04:16:10.755Z,0
2018-09-01T04:17:17.366Z,0
2018-09-01T04:18:23.572Z,0
2018-09-01T04:19:29.994Z,0
2018-09-01T04:20:36.298Z,0
2018-09-01T04:21:42.742Z,1
2018-09-01T04:22:49.833Z,1
2018-09-01T04:23:57.242Z,1
2018-09-01T04:25:03.166Z,1
2018-09-01T04:26:09.965Z,1
2018-09-01T04:27:17.099Z,1
2018-09-01T04:28:23.712Z,2
2018-09-01T04:29:30.343Z,2
2018-09-01T04:30:35.400Z,2
2018-09-01T04:31:41.842Z,2
2018-09-01T04:32:48.352Z,2
2018-09-01T04:33:53.303Z,2
2018-09-01T04:34:59.717Z,3
2018-09-01T04:36:04.242Z,3
2018-09-01T04:37:09.952Z,3
2018-09-01T04:38:15.182Z,3
2018-09-01T04:39:21.380Z,3
2018-09-01T04:40:27.797Z,3
2018-09-01T04:41:34.013Z,4
2018-09-01T04:42:41.616Z,4
2018-09-01T04:43:48.440Z,4
2018-09-01T04:44:54.142Z,5
2018-09-01T04:46:01.088Z,5
2018-09-01T04:47:08.076Z,5
2018-09-01T04:48:14.485Z,5
2018-09-01T04:49:19.648Z,5
2018-09-01T04:50:24.997Z,6
2018-09-01T04:51:29.957Z,6
2018-09-01T04:52:36.220Z,7
2018-09-01T04:53:41.065Z,7
2018-09-01T04:54:47.352Z,7
2018-09-01T04:55:53.127Z,7
2018-09-01T04:57:00.361Z,7
2018-09-01T04:58:06.668Z,7
2018-09-01T04:59:12.813Z,6
2018-09-01T05:00:19.617Z,7
2018-09-01T05:01:26.976Z,7
2018-09-01T05:02:32.288Z,8
2018-09-01T05:03:37.986Z,8
2018-09-01T05:04:44.058Z,9
2018-09-01T05:05:51.386Z,9
2018-09-01T05:06:56.046Z,9
2018-09-01T05:08:00.843Z,10
2018-09-01T05:09:06.127Z,10
2018-09-01T05:10:12.353Z,10
2018-09-01T05:11:18.563Z,10
2018-09-01T05:12:24.646Z,10
2018-09-01T05:13:30.268Z,10
2018-09-01T05:14:36.092Z,11
2018-09-01T05:15:43.283Z,12
2018-09-01T05:16:48.269Z,12
2018-09-01T05:17:54.235Z,13
2018-09-01T05:18:59.292Z,13
2018-09-01T05:20:05.988Z,14
2018-09-01T05:21:13.183Z,14
2018-09-01T05:22:19.572Z,13
2018-09-01T05:23:24.590Z,13
2018-09-01T05:24:30.475Z,13
2018-09-01T05:25:36.074Z,13
2018-09-01T05:26:41.161Z,13
2018-09-01T05:27:46.921Z,13
2018-09-01T05:28:52.707Z,14
2018-09-01T05:29:59.881Z,14
2018-09-01T05:31:06.456Z,16
2018-09-01T05:32:13.127Z,16
2018-09-01T05:33:18.911Z,17
2018-09-01T05:34:24.601Z,18
2018-09-01T05:35:30.014Z,17
2018-09-01T05:36:37.347Z,18
2018-09-01T05:37:44.598Z,18
2018-09-01T05:38:49.903Z,18
2018-09-01T05:39:56.352Z,18
2018-09-01T05:41:04.007Z,18
2018-09-01T05:42:08.509Z,18
2018-09-01T05:43:15.185Z,17
2018-09-01T05:44:22.712Z,17
2018-09-01T05:45:28.339Z,18
2018-09-01T05:46:33.263Z,17
2018-09-01T05:47:39.543Z,17
2018-09-01T05:48:45.056Z,19
2018-09-01T05:49:50.802Z,20
2018-09-01T05:50:58.674Z,20
2018-09-01T05:52:05.729Z,22
2018-09-01T05:53:12.910Z,23
2018-09-01T05:54:18.906Z,23
2018-09-01T05:55:25.203Z,25
2018-09-01T05:56:32.142Z,26
2018-09-01T05:57:39.260Z,26
2018-09-01T05:58:46.908Z,25
2018-09-01T05:59:53.930Z,25
2018-09-01T06:00:59.522Z,27
2018-09-01T06:02:06.450Z,26
2018-09-01T06:03:12.817Z,25
2018-09-01T06:04:18.107Z,27
2018-09-01T06:05:23.901Z,30
2018-09-01T06:06:29.606Z,32
2018-09-01T06:07:37.545Z,32
2018-09-01T06:08:43.874Z,33
2018-09-01T06:10:19.089Z,34
2018-09-01T06:11:24.334Z,31
2018-09-01T06:12:29.918Z,27
2018-09-01T06:13:36.687Z,31
2018-09-01T06:14:42.681Z,32
2018-09-01T06:15:49.758Z,31
2018-09-01T06:16:57.534Z,28
2018-09-01T06:18:04.087Z,27
2018-09-01T06:19:10.316Z,30
2018-09-01T06:20:15.959Z,33
2018-09-01T06:21:21.019Z,34
2018-09-01T06:22:27.604Z,32
2018-09-01T06:23:32.808Z,31
2018-09-01T06:24:38.443Z,34
2018-09-01T06:25:44.581Z,37
2018-09-01T06:26:50.787Z,36
2018-09-01T06:27:56.195Z,38
2018-09-01T06:29:01.484Z,36
2018-09-01T06:30:08.617Z,42
2018-09-01T06:31:15.189Z,39
2018-09-01T06:32:22.130Z,37
2018-09-01T06:33:29.022Z,43
2018-09-01T06:34:34.824Z,46
2018-09-01T06:35:38.924Z,41
2018-09-01T06:36:43.583Z,40
2018-09-01T06:37:50.041Z,36
2018-09-01T06:38:56.687Z,35
2018-09-01T06:40:04.085Z,34
2018-09-01T06:41:11.587Z,42
2018-09-01T06:42:17.854Z,45
2018-09-01T06:43:24.928Z,51
2018-09-01T06:44:31.622Z,48
2018-09-01T06:45:37.156Z,45
2018-09-01T06:46:40.852Z,45
2018-09-01T06:47:44.961Z,45
2018-09-01T06:48:51.354Z,45
2018-09-01T06:49:57.581Z,45
2018-09-01T06:51:03.373Z,46
2018-09-01T06:52:12.048Z,45
2018-09-01T06:53:18.348Z,47
2018-09-01T06:54:25.495Z,51
2018-09-01T06:55:31.915Z,50
2018-09-01T06:56:37.547Z,47
2018-09-01T06:57:44.212Z,44
2018-09-01T06:58:49.839Z,44
2018-09-01T06:59:55.527Z,51
2018-09-01T07:01:00.541Z,54
2018-09-01T07:02:07.944Z,53
2018-09-01T07:03:12.526Z,48
2018-09-01T07:04:18.633Z,47
2018-09-01T07:05:24.337Z,47
2018-09-01T07:06:30.309Z,46
2018-09-01T07:07:36.582Z,47
2018-09-01T07:08:43.742Z,49
2018-09-01T07:09:49.654Z,55
2018-09-01T07:10:58.018Z,57
2018-09-01T07:12:04.903Z,59
2018-09-01T07:13:09.933Z,60
2018-09-01T07:14:16.103Z,51
2018-09-01T07:15:21.214Z,58
2018-09-01T07:16:25.068Z,63
2018-09-01T07:17:29.135Z,63
2018-09-01T07:18:34.351Z,64
2018-09-01T07:19:41.083Z,66
2018-09-01T07:20:45.400Z,63
2018-09-01T07:21:52.556Z,63
2018-09-01T07:22:58.821Z,65
2018-09-01T07:24:04.601Z,58
2018-09-01T07:25:10.710Z,51
2018-09-01T07:26:17.688Z,53
2018-09-01T07:27:23.773Z,58
2018-09-01T07:28:29.981Z,62
2018-09-01T07:29:36.058Z,59
2018-09-01T07:30:41.945Z,59
2018-09-01T07:31:48.224Z,63
2018-09-01T07:32:54.930Z,64
2018-09-01T07:34:00.459Z,75
2018-09-01T07:35:06.974Z,77
2018-09-01T07:36:09.752Z,82
2018-09-01T07:37:14.208Z,75
2018-09-01T07:38:20.920Z,75
2018-09-01T07:39:26.517Z,76
2018-09-01T07:40:31.464Z,70
2018-09-01T07:41:36.328Z,68
2018-09-01T07:42:41.183Z,71
2018-09-01T07:43:47.894Z,69
2018-09-01T07:44:54.194Z,68
2018-09-01T07:45:58.930Z,66
2018-09-01T07:47:03.941Z,67
2018-09-01T07:48:10.986Z,70
2018-09-01T07:49:16.772Z,62
2018-09-01T07:50:22.679Z,68
2018-09-01T07:51:29.961Z,93
2018-09-01T07:52:34.971Z,103
2018-09-01T07:53:38.850Z,95
2018-09-01T07:54:43.597Z,89
2018-09-01T07:55:48.522Z,79
2018-09-01T07:56:52.882Z,77
2018-09-01T07:57:57.670Z,68
2018-09-01T07:59:01.201Z,77
2018-09-01T08:00:05.673Z,123
2018-09-01T08:01:10.942Z,116
2018-09-01T08:02:14.432Z,94
2018-09-01T08:03:17.139Z,79
2018-09-01T08:04:19.252Z,89
2018-09-01T08:05:21.355Z,96
2018-09-01T08:06:23.456Z,87
2018-09-01T08:07:25.599Z,86
2018-09-01T08:08:27.676Z,85
2018-09-01T08:09:29.781Z,75
2018-09-01T08:10:31.901Z,77
2018-09-01T08:11:34.017Z,89
2018-09-01T08:12:36.156Z,147
2018-09-01T08:13:38.334Z,106
2018-09-01T08:14:40.423Z,83
2018-09-01T08:15:42.794Z,91
2018-09-01T08:16:44.920Z,95
2018-09-01T08:17:47.042Z,70
2018-09-01T08:18:49.159Z,58
2018-09-01T08:19:51.280Z,64
2018-09-01T08:20:53.469Z,65
2018-09-01T08:21:55.594Z,68
2018-09-01T08:22:57.717Z,86
2018-09-01T08:24:00.682Z,129
2018-09-01T08:25:02.794Z,222
2018-09-01T08:26:04.931Z,69
2018-09-01T08:27:07.019Z,77
2018-09-01T08:28:09.116Z,102
2018-09-01T08:29:11.230Z,92
2018-09-01T08:30:14.018Z,83
2018-09-01T08:31:16.115Z,84
2018-09-01T08:32:18.233Z,100
2018-09-01T08:33:20.349Z,143
2018-09-01T08:34:22.456Z,132
2018-09-01T08:35:24.567Z,139
2018-09-01T08:36:26.657Z,175
2018-09-01T08:37:28.773Z,120
2018-09-01T08:38:30.873Z,123
2018-09-01T08:39:32.971Z,121
2018-09-01T08:40:35.142Z,287
2018-09-01T08:41:37.239Z,278
2018-09-01T08:42:39.346Z,279
2018-09-01T08:43:41.462Z,273
2018-09-01T08:44:43.566Z,276
2018-09-01T08:45:45.666Z,281
2018-09-01T08:46:47.773Z,277
2018-09-01T08:47:49.875Z,290
2018-09-01T08:48:51.985Z,297
2018-09-01T08:49:54.403Z,304
2018-09-01T08:50:57.187Z,300
2018-09-01T08:51:59.292Z,295
2018-09-01T08:53:01.415Z,296
2018-09-01T08:54:03.552Z,289
2018-09-01T08:55:05.630Z,285
2018-09-01T08:56:07.749Z,283
2018-09-01T08:57:10.238Z,289
2018-09-01T08:58:12.351Z,293
2018-09-01T08:59:14.519Z,295
2018-09-01T09:00:17.662Z,312
2018-09-01T09:01:19.766Z,302
2018-09-01T09:02:21.886Z,309
2018-09-01T09:03:24.001Z,324
2018-09-01T09:04:26.108Z,322
2018-09-01T09:05:28.273Z,338
2018-09-01T09:06:30.343Z,334
2018-09-01T09:07:32.475Z,319
2018-09-01T09:08:34.959Z,311
2018-09-01T09:09:37.083Z,304
2018-09-01T09:10:39.493Z,318
2018-09-01T09:11:42.210Z,312
2018-09-01T09:12:44.281Z,321
2018-09-01T09:13:46.383Z,312
2018-09-01T09:14:48.510Z,304
2018-09-01T09:15:50.624Z,303
2018-09-01T09:16:52.728Z,336
2018-09-01T09:17:55.150Z,343
2018-09-01T09:18:57.281Z,334
2018-09-01T09:19:59.393Z,328
2018-09-01T09:21:01.518Z,338
2018-09-01T09:22:03.630Z,345
2018-09-01T09:23:05.742Z,349
2018-09-01T09:24:07.857Z,355
2018-09-01T09:25:09.982Z,348
2018-09-01T09:26:12.373Z,330
2018-09-01T09:27:14.503Z,329
2018-09-01T09:28:16.920Z,335
2018-09-01T09:29:19.033Z,341
2018-09-01T09:30:21.171Z,358
2018-09-01T09:31:23.579Z,368
2018-09-01T09:32:25.697Z,361
2018-09-01T09:33:27.803Z,366
2018-09-01T09:34:29.957Z,380
2018-09-01T09:35:32.045Z,380
2018-09-01T09:36:34.160Z,375
2018-09-01T09:37:36.292Z,376
2018-09-01T09:38:38.402Z,372
2018-09-01T09:39:40.536Z,366
2018-09-01T09:40:42.965Z,373
2018-09-01T09:41:45.295Z,375
2018-09-01T09:42:47.424Z,387
2018-09-01T09:43:49.944Z,377
2018-09-01T09:44:52.072Z,365
2018-09-01T09:45:54.189Z,355
2018-09-01T09:46:56.331Z,372
2018-09-01T09:47:58.444Z,373
2018-09-01T09:49:00.565Z,371
2018-09-01T09:50:03.077Z,381
2018-09-01T09:51:05.605Z,381
2018-09-01T09:52:07.731Z,385
2018-09-01T09:53:10.295Z,378
2018-09-01T09:54:12.423Z,257
2018-09-01T09:55:14.536Z,299
2018-09-01T09:56:16.933Z,383
2018-09-01T09:57:19.058Z,379
2018-09-01T09:58:21.734Z,365
2018-09-01T09:59:23.756Z,353
2018-09-01T10:00:25.888Z,362
2018-09-01T10:01:28.029Z,363
2018-09-01T10:02:30.540Z,364
2018-09-01T10:03:32.664Z,367
2018-09-01T10:04:34.779Z,314
2018-09-01T10:05:37.380Z,393
2018-09-01T10:06:39.460Z,390
2018-09-01T10:07:41.903Z,373
2018-09-01T10:08:44.306Z,361
2018-09-01T10:09:47.121Z,365
2018-09-01T10:10:49.313Z,375
2018-09-01T10:11:52.418Z,376
2018-09-01T10:12:54.921Z,307
2018-09-01T10:13:57.336Z,384
2018-09-01T10:14:59.467Z,399
2018-09-01T10:16:02.768Z,241
2018-09-01T10:17:04.891Z,346
2018-09-01T10:18:07.008Z,371
2018-09-01T10:19:09.124Z,373
2018-09-01T10:20:12.020Z,134
2018-09-01T10:21:13.900Z,125
2018-09-01T10:22:16.021Z,134
2018-09-01T10:23:18.156Z,425
2018-09-01T10:24:20.500Z,403
2018-09-01T10:25:22.592Z,436
2018-09-01T10:26:24.642Z,454
2018-09-01T10:27:26.711Z,412
2018-09-01T10:28:29.454Z,149
2018-09-01T10:29:31.808Z,371
2018-09-01T10:30:34.164Z,164
2018-09-01T10:31:36.225Z,372
2018-09-01T10:32:38.457Z,368
2018-09-01T10:33:40.904Z,375
2018-09-01T10:34:42.961Z,375
2018-09-01T10:35:45.123Z,350
2018-09-01T10:36:47.185Z,373
2018-09-01T10:37:49.834Z,369
2018-09-01T10:38:51.881Z,372
2018-09-01T10:39:53.957Z,388
2018-09-01T10:40:55.980Z,419
2018-09-01T10:41:58.041Z,418
2018-09-01T10:43:00.094Z,393
2018-09-01T10:44:02.150Z,420
2018-09-01T10:45:04.214Z,394
2018-09-01T10:46:06.258Z,391
2018-09-01T10:47:08.309Z,380
2018-09-01T10:48:10.364Z,388
2018-09-01T10:49:12.429Z,381
2018-09-01T10:50:14.781Z,400
2018-09-01T10:51:16.833Z,433
2018-09-01T10:52:18.885Z,421
2018-09-01T10:53:20.939Z,414
2018-09-01T10:54:22.996Z,400
2018-09-01T10:55:25.053Z,414
2018-09-01T10:56:27.104Z,413
2018-09-01T10:57:29.189Z,412
2018-09-01T10:58:31.247Z,421
2018-09-01T10:59:33.480Z,392
2018-09-01T11:00:35.646Z,402
2018-09-01T11:01:38.087Z,416
2018-09-01T11:02:40.136Z,403
2018-09-01T11:03:42.190Z,393
2018-09-01T11:04:44.246Z,404
2018-09-01T11:05:46.823Z,375
2018-09-01T11:06:49.159Z,365
2018-09-01T11:07:51.503Z,374
2018-09-01T11:08:53.951Z,417
2018-09-01T11:09:56.278Z,425
2018-09-01T11:10:58.334Z,434
2018-09-01T11:12:00.391Z,414
2018-09-01T11:13:02.796Z,383
2018-09-01T11:14:05.132Z,407
2018-09-01T11:15:10.279Z,396
2018-09-01T11:16:14.064Z,385
2018-09-01T11:17:18.301Z,397
2018-09-01T11:18:22.548Z,414
2018-09-01T11:19:27.620Z,405
2018-09-01T11:20:32.559Z,377
2018-09-01T11:21:37.191Z,377
2018-09-01T11:22:40.542Z,378
2018-09-01T11:23:45.564Z,384
2018-09-01T11:24:50.568Z,374
2018-09-01T11:25:56.639Z,389
2018-09-01T11:27:02.007Z,378
2018-09-01T11:28:06.681Z,385
2018-09-01T11:29:12.217Z,389
2018-09-01T11:30:17.979Z,405
2018-09-01T11:31:23.717Z,387
2018-09-01T11:32:29.126Z,371
2018-09-01T11:33:35.410Z,351
2018-09-01T11:34:41.454Z,363
2018-09-01T11:35:48.599Z,370
2018-09-01T11:36:53.793Z,370
2018-09-01T11:38:00.073Z,346
2018-09-01T11:39:06.943Z,333
2018-09-01T11:40:13.661Z,350
2018-09-01T11:41:18.033Z,357
2018-09-01T11:42:23.213Z,363
2018-09-01T11:43:29.573Z,365
2018-09-01T11:44:35.450Z,369
2018-09-01T11:45:39.035Z,389
2018-09-01T11:46:44.566Z,372
2018-09-01T11:47:50.235Z,369
2018-09-01T11:48:56.775Z,363
2018-09-01T11:50:02.351Z,374
2018-09-01T11:51:08.784Z,370
2018-09-01T11:52:15.268Z,370
2018-09-01T11:53:22.869Z,360
2018-09-01T11:54:29.104Z,375
2018-09-01T11:55:36.361Z,379
2018-09-01T11:56:42.703Z,375
2018-09-01T11:57:47.755Z,379
2018-09-01T11:58:54.555Z,376
2018-09-01T12:00:00.287Z,372
2018-09-01T12:01:05.004Z,353
2018-09-01T12:02:10.168Z,357
2018-09-01T12:03:15.423Z,362
2018-09-01T12:04:20.534Z,349
2018-09-01T12:05:26.443Z,335
2018-09-01T12:06:31.125Z,343
2018-09-01T12:07:36.566Z,351
2018-09-01T12:08:41.553Z,313
2018-09-01T12:09:47.371Z,290
2018-09-01T12:10:51.387Z,292
2018-09-01T12:11:58.259Z,302
2018-09-01T12:13:00.812Z,330
2018-09-01T12:14:05.951Z,347
2018-09-01T12:15:10.661Z,345
2018-09-01T12:16:16.822Z,333
2018-09-01T12:17:23.391Z,368
2018-09-01T12:18:30.161Z,373
2018-09-01T12:19:36.570Z,347
2018-09-01T12:20:40.575Z,369
2018-09-01T12:21:46.424Z,355
2018-09-01T12:22:50.480Z,343
2018-09-01T12:23:56.496Z,349
2018-09-01T12:25:02.815Z,350
2018-09-01T12:26:08.339Z,342
2018-09-01T12:27:14.655Z,328
2018-09-01T12:28:18.892Z,334
2018-09-01T12:29:25.352Z,334
2018-09-01T12:30:31.070Z,341
2018-09-01T12:31:37.355Z,351
2018-09-01T12:32:42.565Z,361
2018-09-01T12:33:47.868Z,331
2018-09-01T12:34:52.632Z,328
2018-09-01T12:35:58.619Z,354
2018-09-01T12:37:05.011Z,356
2018-09-01T12:38:10.728Z,346
2018-09-01T12:39:16.420Z,333
2018-09-01T12:40:21.150Z,338
2018-09-01T12:41:26.361Z,333
2018-09-01T12:42:32.143Z,336
2018-09-01T12:43:38.290Z,345
2018-09-01T12:44:44.305Z,345
2018-09-01T12:45:49.193Z,329
2018-09-01T12:46:54.978Z,319
2018-09-01T12:48:00.286Z,336
2018-09-01T12:49:07.157Z,350
2018-09-01T12:50:13.393Z,355
2018-09-01T12:51:19.392Z,346
2018-09-01T12:52:24.269Z,327
2018-09-01T12:53:30.321Z,364
2018-09-01T12:54:36.830Z,366
2018-09-01T12:55:42.739Z,368
2018-09-01T12:56:48.632Z,370
2018-09-01T12:57:51.455Z,351
2018-09-01T12:58:57.607Z,327
2018-09-01T13:00:02.750Z,335
2018-09-01T13:01:07.785Z,352
2018-09-01T13:02:13.402Z,331
2018-09-01T13:03:19.358Z,306
2018-09-01T13:04:25.171Z,309
2018-09-01T13:05:31.458Z,300
2018-09-01T13:06:36.714Z,304
2018-09-01T13:07:40.454Z,342
2018-09-01T13:08:45.160Z,365
2018-09-01T13:09:49.798Z,333
2018-09-01T13:10:55.641Z,314
2018-09-01T13:12:00.521Z,309
2018-09-01T13:13:05.621Z,307
2018-09-01T13:14:10.689Z,291
2018-09-01T13:15:13.864Z,315
2018-09-01T13:16:17.517Z,314
2018-09-01T13:17:20.992Z,316
2018-09-01T13:18:27.032Z,326
2018-09-01T13:19:31.798Z,278
2018-09-01T13:20:36.445Z,272
2018-09-01T13:21:40.176Z,276
2018-09-01T13:22:44.736Z,295
2018-09-01T13:23:50.954Z,145
2018-09-01T13:24:56.839Z,256
2018-09-01T13:26:03.109Z,151
2018-09-01T13:27:08.601Z,132
2018-09-01T13:28:14.299Z,180
2018-09-01T13:29:19.745Z,100
2018-09-01T13:30:24.511Z,117
2018-09-01T13:31:29.856Z,165
2018-09-01T13:32:34.975Z,170
2018-09-01T13:33:40.568Z,120
2018-09-01T13:34:44.836Z,174
2018-09-01T13:35:50.187Z,147
2018-09-01T13:36:56.447Z,140
2018-09-01T13:38:02.579Z,90
2018-09-01T13:39:09.920Z,88
2018-09-01T13:40:16.339Z,112
2018-09-01T13:41:20.408Z,217
2018-09-01T13:42:27.045Z,253
2018-09-01T13:43:33.473Z,196
2018-09-01T13:44:39.792Z,180
2018-09-01T13:45:45.209Z,212
2018-09-01T13:46:48.953Z,244
2018-09-01T13:47:55.539Z,160
2018-09-01T13:49:01.694Z,148
2018-09-01T13:50:07.783Z,192
2018-09-01T13:51:13.600Z,153
2018-09-01T13:52:19.986Z,153
2018-09-01T13:53:25.899Z,168
2018-09-01T13:54:32.281Z,122
2018-09-01T13:55:37.861Z,178
2018-09-01T13:56:44.982Z,126
2018-09-01T13:57:50.409Z,275
2018-09-01T13:58:56.022Z,135
2018-09-01T14:00:03.059Z,121
2018-09-01T14:01:09.145Z,115
2018-09-01T14:02:14.008Z,280
2018-09-01T14:03:18.589Z,262
2018-09-01T14:04:25.072Z,139
2018-09-01T14:05:30.119Z,147
2018-09-01T14:06:36.841Z,230
2018-09-01T14:07:43.229Z,174
2018-09-01T14:08:48.577Z,187
2018-09-01T14:09:53.695Z,281
2018-09-01T14:10:59.716Z,274
2018-09-01T14:12:04.312Z,162
2018-09-01T14:13:10.028Z,223
2018-09-01T14:14:17.419Z,232
2018-09-01T14:15:22.560Z,236
2018-09-01T14:16:27.772Z,194
2018-09-01T14:17:32.419Z,226
2018-09-01T14:18:39.064Z,230
2018-09-01T14:19:46.217Z,231
2018-09-01T14:20:52.345Z,226
2018-09-01T14:21:58.861Z,243
2018-09-01T14:23:05.456Z,202
2018-09-01T14:24:12.109Z,238
2018-09-01T14:25:16.737Z,234
2018-09-01T14:26:22.873Z,244
2018-09-01T14:27:28.020Z,251
2018-09-01T14:28:32.232Z,249
2018-09-01T14:29:36.754Z,242
2018-09-01T14:30:40.686Z,239
2018-09-01T14:31:44.557Z,242
2018-09-01T14:32:49.626Z,243
2018-09-01T14:33:55.142Z,225
2018-09-01T14:35:00.125Z,223
2018-09-01T14:36:06.989Z,236
2018-09-01T14:37:09.844Z,235
2018-09-01T14:38:15.255Z,227
2018-09-01T14:39:21.436Z,230
2018-09-01T14:40:27.564Z,217
2018-09-01T14:41:31.754Z,215
2018-09-01T14:42:37.316Z,209
2018-09-01T14:43:42.635Z,205
2018-09-01T14:44:46.683Z,230
2018-09-01T14:45:50.353Z,213
2018-09-01T14:46:55.246Z,212
2018-09-01T14:48:01.025Z,212
2018-09-01T14:49:05.056Z,208
2018-09-01T14:50:09.474Z,199
2018-09-01T14:51:15.252Z,199
2018-09-01T14:52:21.686Z,203
2018-09-01T14:53:26.476Z,209
2018-09-01T14:54:31.817Z,202
2018-09-01T14:55:37.391Z,200
2018-09-01T14:56:44.227Z,206
2018-09-01T14:57:50.704Z,203
2018-09-01T14:58:55.858Z,198
2018-09-01T15:00:00.245Z,196
2018-09-01T15:01:05.270Z,189
2018-09-01T15:02:11.061Z,192
2018-09-01T15:03:16.879Z,184
2018-09-01T15:04:22.584Z,190
2018-09-01T15:05:27.408Z,187
2018-09-01T15:06:34.484Z,196
2018-09-01T15:07:41.874Z,191
2018-09-01T15:08:47.395Z,180
2018-09-01T15:09:51.968Z,167
2018-09-01T15:10:57.964Z,171
2018-09-01T15:12:03.695Z,169
2018-09-01T15:13:09.275Z,168
2018-09-01T15:14:14.182Z,164
2018-09-01T15:15:19.310Z,170
2018-09-01T15:16:23.053Z,169
2018-09-01T15:17:27.379Z,165
2018-09-01T15:18:32.258Z,169
2018-09-01T15:19:37.326Z,167
2018-09-01T15:20:41.041Z,171
2018-09-01T15:21:43.784Z,176